Llanbrynmair, United Kingdom
Current Conditions -  °F | °C
As of 5:50 PM on Friday 24 Oct 2014 (Local Time) from EGOS Reporting Station
Scattered Clouds Scattered Clouds  
Wind Chill: 52°   Ceiling: Unl
Heat Index: 52°   Visibility: 6mi
Dew Point: 45°   Wind: 3mph
Humidity: 76%   Direction: 200°SSW
Pressure: 29.88"   Gusts: NA
Location:  52.61°N, 3.63°W
Report Text: EGOS 241650Z AUTO 20003KT 9999 SCT050/// 11/07 Q1012
Loading
Personal Weather Stations






























Interactive Weather Map New forecast layout! Learn more

10-Day Weather Forecast

Advertisements
Track Severe Weather on mobile